Latest Weather Observations for Tarcoola

IDS60801

Issued at 6:05 pm CDT Wednesday 22 October 2014 (issued every 30 minutes, with the page automatically refreshed every 10 minutes)

About weather observations | Map of weather stations | Latest weather observations for SA | Other Formats
Station Details ID: 016098 Name: TARCOOLA AERO Lat: -30.71 Lon: 134.58 Height: 123.0 m
Data from the previous 72 hours. | See also: Recent months at Tarcoola
Date/Time
CDT
Temp
°C
App
Temp
°C
Dew
Point
Rel
Hum
%
Delta-T
°C
Wind Press
QNH
hPa
Press
MSL
hPa
Rain
since 9 am
mm
Dir
 
Spd
km/h
Gust
km/h
Spd
kts
Gust
kts
22/06:00pm 33.2 29.2 3.1 15 15.5 SW 13 20 7 11 1016.6 1016.3 0.0
22/05:30pm 33.1 28.9 3.9 16 15.2 SW 15 24 8 13 1016.7 1016.4 0.0
22/05:00pm 33.5 28.4 4.2 16 15.4 SSW 20 26 11 14 1016.7 1016.4 0.0
22/04:30pm 32.9 27.7 3.8 16 15.2 SSW 20 32 11 17 1016.9 1016.6 0.0
22/04:00pm 33.2 28.7 4.0 16 15.3 SSW 17 30 9 16 1017.1 1016.8 0.0
22/03:30pm 33.2 28.7 4.0 16 15.3 S 17 32 9 17 1017.5 1017.2 0.0
22/03:00pm 32.5 28.0 4.3 17 14.8 SE 17 22 9 12 1017.8 1017.5 0.0
22/02:30pm 31.8 26.6 3.8 17 14.5 SSW 20 22 11 12 1018.2 1017.9 0.0
22/02:00pm 31.5 27.9 5.1 19 13.9 SSW 13 22 7 12 1018.6 1018.3 0.0
22/01:30pm 31.2 26.3 4.9 19 13.8 SSW 20 30 11 16 1018.9 1018.6 0.0
22/01:00pm 31.2 27.3 7.0 22 13.2 SW 17 32 9 17 1019.2 1018.9 0.0
22/12:30pm 29.9 25.6 7.7 25 12.1 SSW 20 30 11 16 1019.5 1019.2 0.0
22/12:00pm 28.9 24.6 8.0 27 11.4 S 20 30 11 16 1019.7 1019.4 0.0
22/11:30am 28.4 24.3 8.7 29 10.8 S 20 30 11 16 1020.1 1019.8 0.0
22/11:00am 26.3 21.4 8.3 32 9.8 SSW 24 32 13 17 1020.3 1020.0 0.0
22/10:30am 25.4 20.9 8.4 34 9.2 S 22 30 12 16 1020.5 1020.1 0.0
22/10:00am 23.9 20.1 9.1 39 8.0 S 19 28 10 15 1020.7 1020.3 0.0
22/09:30am 22.0 18.3 10.2 47 6.4 S 20 28 11 15 1020.5 1020.1 0.0
22/09:00am 20.4 17.1 10.8 54 5.3 S 19 28 10 15 1020.2 1019.9 0.0
22/08:30am 18.7 15.4 11.0 61 4.2 SSW 19 24 10 13 1020.0 1019.7 0.0
22/08:00am 17.1 14.3 11.2 68 3.2 SW 17 20 9 11 1019.8 1019.5 0.0
22/07:30am 16.0 13.4 10.7 71 2.8 SW 15 19 8 10 1019.7 1019.4 0.0
22/07:00am 15.0 13.0 10.2 73 2.5 WSW 11 13 6 7 1019.3 1019.0 0.0
22/06:30am 14.7 12.5 9.5 71 2.7 SW 11 11 6 6 1019.0 1018.7 0.0
22/06:00am 15.3 13.6 9.9 70 2.8 SSW 9 13 5 7 1018.7 1018.4 0.0
22/05:30am 16.2 14.6 10.3 68 3.1 SSW 9 13 5 7 1018.6 1018.3 0.0
22/05:00am 16.5 14.2 10.6 68 3.2 SW 13 15 7 8 1018.5 1018.2 0.0
22/04:30am 17.2 15.0 10.8 66 3.4 SW 13 17 7 9 1018.5 1018.2 0.0
22/04:00am 17.8 16.4 10.9 64 3.7 S 9 17 5 9 1018.4 1018.1 0.0
22/03:30am 18.4 15.5 11.0 62 4.0 S 17 24 9 13 1018.5 1018.2 0.0
22/03:00am 18.8 16.0 10.1 57 4.7 SSW 15 20 8 11 1018.3 1018.0 0.0
22/02:30am 19.5 16.2 9.7 53 5.2 SSW 17 24 9 13 1018.4 1018.1 0.0
22/02:00am 20.1 16.9 8.4 47 6.1 SW 15 20 8 11 1018.6 1018.3 0.0
22/01:30am 20.7 16.4 8.0 44 6.6 SSW 20 26 11 14 1018.4 1018.1 0.0
22/01:00am 21.4 17.1 8.0 42 7.0 SSW 20 32 11 17 1018.6 1018.3 0.0
22/12:30am 22.3 16.6 6.9 37 7.9 SSW 26 39 14 21 1018.7 1018.4 0.0
22/12:00am 23.0 17.3 6.7 35 8.4 SW 26 33 14 18 1018.7 1018.4 0.0
 
Date/Time
CDT
Temp
°C
App
Temp
°C
Dew
Point
Rel
Hum
%
Delta-T
°C
Wind Press
QNH
hPa
Press
MSL
hPa
Rain
since 9 am
mm
Dir
 
Spd
km/h
Gust
km/h
Spd
kts
Gust
kts
21/11:30pm 23.9 18.1 6.2 32 9.1 SSW 26 35 14 19 1019.0 1018.7 0.0
21/11:00pm 24.4 18.5 5.7 30 9.6 SSW 26 39 14 21 1019.0 1018.7 0.0
21/10:30pm 25.2 18.1 5.4 28 10.1 SSW 32 43 17 23 1018.8 1018.5 0.0
21/10:00pm 26.2 19.1 5.7 27 10.6 SSW 32 48 17 26 1018.4 1018.1 0.0
21/09:30pm 27.4 19.2 4.5 23 11.7 SSW 37 56 20 30 1017.8 1017.5 0.0
21/09:00pm 28.5 19.7 3.4 20 12.6 SW 39 52 21 28 1016.8 1016.5 0.0
21/08:40pm 29.9 21.7 4.5 20 13.2 SSW 37 56 20 30 1016.1 1015.8 0.0
21/08:38pm 30.2 22.2 4.0 19 13.5 SSW 35 50 19 27 1016.0 1015.7 0.0
21/08:30pm 29.7 25.6 -2.7 12 14.8 WSW 9 11 5 6 1015.5 1015.2 0.0
21/08:00pm 32.0 28.4 -2.1 11 16.0 W 7 9 4 5 1015.1 1014.7 0.0
21/07:30pm 33.9 31.6 -2.0 10 17.1 CALM 0 0 0 0 1014.8 1014.4 0.0
21/07:00pm 34.9 31.4 -1.2 10 17.6 W 7 9 4 5 1014.6 1014.2 0.0
21/06:30pm 36.0 32.6 -1.8 9 18.3 WNW 6 11 3 6 1014.4 1014.0 0.0
21/06:00pm 36.4 31.0 -1.5 9 18.5 NNW 17 20 9 11 1014.4 1014.0 0.0
21/05:46pm 36.5 28.6 -1.4 9 18.6 W 30 44 16 24 1014.4 1014.0 0.0
21/05:30pm 36.9 32.3 -1.1 9 18.8 SW 13 20 7 11 1014.5 1014.1 0.0
21/05:00pm 37.7 31.8 -0.6 9 19.2 WNW 20 26 11 14 1014.5 1014.1 0.0
21/04:44pm 38.0 29.9 -0.3 9 19.3 NNW 32 50 17 27 1014.5 1014.1 0.0
21/04:42pm 37.4 27.5 -0.8 9 19.0 N 41 50 22 27 1014.4 1014.0 0.0
21/04:30pm 37.1 30.8 -1.0 9 18.9 N 22 30 12 16 1014.4 1014.0 0.0
21/04:22pm 37.0 29.2 -1.1 9 18.8 NNW 30 61 16 33 1014.3 1013.9 0.0
21/04:00pm 37.7 30.9 -2.2 8 19.5 N 24 35 13 19 1014.2 1013.8 0.0
21/03:30pm 38.9 32.9 -1.3 8 20.0 N 20 32 11 17 1014.3 1013.9 0.0
21/03:00pm 38.2 31.4 -1.8 8 19.7 NNW 24 35 13 19 1014.7 1014.3 0.0
21/02:30pm 38.2 30.6 -1.8 8 19.7 N 28 43 15 23 1015.2 1014.8 0.0
21/02:00pm 38.2 29.9 -1.8 8 19.7 N 32 44 17 24 1015.5 1015.2 0.0
21/01:47pm 38.5 30.2 -1.6 8 19.8 N 32 52 17 28 1015.7 1015.4 0.0
21/01:30pm 39.9 31.8 -0.5 8 20.5 N 32 46 17 25 1016.1 1015.8 0.0
21/01:00pm 38.0 29.7 -0.3 9 19.3 N 33 46 18 25 1016.4 1016.1 0.0
21/12:44pm 37.5 30.1 -0.7 9 19.0 N 28 46 15 25 1016.7 1016.4 0.0
21/12:30pm 36.5 28.6 -1.4 9 18.5 N 30 39 16 21 1016.9 1016.6 0.0
21/12:08pm 36.9 28.5 -1.1 9 18.8 N 33 52 18 28 1017.2 1016.9 0.0
21/12:00pm 36.2 27.5 -0.2 10 18.1 N 35 50 19 27 1017.3 1017.0 0.0
21/11:30am 35.5 26.8 -0.8 10 17.8 N 35 57 19 31 1017.7 1017.4 0.0
21/11:03am 36.1 27.4 -0.3 10 18.1 N 35 57 19 31 1017.8 1017.5 0.0
21/11:00am 35.8 27.1 -0.5 10 18.0 N 35 50 19 27 1017.8 1017.5 0.0
21/10:30am 35.5 27.0 0.6 11 17.5 N 35 48 19 26 1017.8 1017.5 0.0
21/10:00am 32.9 25.2 -0.2 12 16.2 N 30 41 16 22 1017.7 1017.4 0.0
21/09:30am 30.9 23.3 -1.8 12 15.3 N 28 39 15 21 1017.8 1017.5 0.0
21/09:00am 30.1 23.4 -1.3 13 14.7 NNE 24 35 13 19 1017.5 1017.2 0.0
21/08:30am 28.9 22.8 -2.3 13 14.2 NNE 20 28 11 15 1017.1 1016.8 0.0
21/08:00am 27.2 21.6 -2.6 14 13.4 NNE 17 24 9 13 1017.0 1016.7 0.0
21/07:30am 26.9 21.3 -2.8 14 13.2 NNE 17 24 9 13 1016.6 1016.3 0.0
21/07:00am 26.6 20.6 -3.1 14 13.1 NNE 19 22 10 12 1016.1 1015.8 0.0
21/06:30am 26.4 20.8 -3.2 14 13.0 NNE 17 20 9 11 1015.6 1015.3 0.0
21/06:00am 26.6 21.0 -3.1 14 13.1 NNE 17 20 9 11 1015.3 1014.9 0.0
21/05:30am 26.4 20.9 -2.3 15 12.9 NE 17 22 9 12 1015.0 1014.6 0.0
21/05:00am 26.6 21.5 -2.1 15 12.9 NE 15 19 8 10 1015.0 1014.6 0.0
21/04:30am 26.9 21.8 -1.9 15 13.1 NE 15 19 8 10 1014.9 1014.5 0.0
21/04:00am 26.6 21.7 -3.1 14 13.1 NNE 13 17 7 9 1014.9 1014.5 0.0
21/03:30am 27.9 22.4 -2.0 14 13.6 NNE 17 24 9 13 1014.8 1014.4 0.0
21/03:00am 28.6 22.5 -2.5 13 14.1 NE 20 28 11 15 1014.8 1014.4 0.0
21/02:30am 29.4 22.5 -2.9 12 14.7 NE 24 33 13 18 1015.0 1014.6 0.0
21/02:00am 29.6 22.3 -2.8 12 14.8 NE 26 35 14 19 1015.1 1014.7 0.0
21/01:30am 29.7 22.4 -2.7 12 14.8 NE 26 39 14 21 1015.2 1014.8 0.0
21/01:00am 29.3 22.6 -4.2 11 14.9 NE 22 32 12 17 1015.4 1015.0 0.0
21/12:30am 28.7 22.2 -5.9 10 14.8 NE 20 26 11 14 1015.5 1015.2 0.0
21/12:00am 28.4 22.5 -6.1 10 14.7 ENE 17 19 9 10 1015.6 1015.3 0.0
 
Date/Time
CDT
Temp
°C
App
Temp
°C
Dew
Point
Rel
Hum
%
Delta-T
°C
Wind Press
QNH
hPa
Press
MSL
hPa
Rain
since 9 am
mm
Dir
 
Spd
km/h
Gust
km/h
Spd
kts
Gust
kts
20/11:30pm 28.4 22.5 -6.1 10 14.7 NE 17 20 9 11 1015.7 1015.4 0.0
20/11:00pm 29.2 23.2 -6.9 9 15.3 ENE 17 20 9 11 1015.9 1015.6 0.0
20/10:30pm 26.2 20.6 -10.6 8 14.1 E 13 15 7 8 1015.9 1015.6 0.0
20/10:00pm 28.1 22.3 -9.2 8 15.0 E 15 17 8 9 1015.8 1015.5 0.0
20/09:30pm 26.9 21.6 -11.8 7 14.7 ENE 11 13 6 7 1015.7 1015.4 0.0
20/09:00pm 29.1 23.9 -10.2 7 15.7 E 11 15 6 8 1015.5 1015.2 0.0
20/08:30pm 30.5 26.2 -11.1 6 16.5 ENE 6 7 3 4 1015.4 1015.0 0.0
20/08:00pm 32.0 26.9 -10.0 6 17.3 ENE 11 11 6 6 1015.1 1014.7 0.0
20/07:30pm 34.9 30.1 -10.3 5 19.0 ENE 9 11 5 6 1014.8 1014.4 0.0
20/07:00pm 36.9 31.8 -8.9 5 20.0 ENE 11 17 6 9 1014.5 1014.1 0.0
20/06:30pm 38.1 31.8 -10.9 4 20.9 ENE 17 22 9 12 1014.3 1013.9 0.0
20/06:00pm 37.6 32.4 -11.2 4 20.7 N 11 17 6 9 1014.4 1014.0 0.0
20/05:30pm 38.1 32.5 -10.9 4 20.9 NNW 13 20 7 11 1014.4 1014.0 0.0
20/05:00pm 39.2 33.3 -10.1 4 21.5 N 15 28 8 15 1014.6 1014.2 0.0
20/04:30pm 38.8 32.5 -10.4 4 21.3 N 17 22 9 12 1014.8 1014.4 0.0
20/04:00pm 39.3 32.9 -7.2 5 21.2 N 19 28 10 15 1015.1 1014.7 0.0
20/03:30pm 38.9 31.9 -7.5 5 21.0 N 22 37 12 20 1015.4 1015.0 0.0
20/03:00pm 38.4 31.3 -7.8 5 20.7 N 22 33 12 18 1015.8 1015.5 0.0
20/02:30pm 38.8 32.1 -7.6 5 20.9 N 20 32 11 17 1016.3 1016.0 0.0
20/02:00pm 38.1 29.9 -8.1 5 20.6 N 28 32 15 17 1016.8 1016.5 0.0
20/01:30pm 36.9 32.2 -8.9 5 20.0 NNE 9 24 5 13 1017.3 1017.0 0.0
20/01:00pm 38.1 31.4 -8.1 5 20.6 N 20 30 11 16 1017.7 1017.4 0.0
20/12:30pm 36.8 28.1 -9.0 5 19.9 N 30 41 16 22 1018.2 1017.9 0.0
20/12:00pm 36.6 28.5 -6.8 6 19.5 NNE 28 46 15 25 1018.5 1018.2 0.0
20/11:30am 35.9 27.4 -7.2 6 19.1 NE 30 37 16 20 1019.0 1018.7 0.0
20/11:00am 34.9 25.9 -8.0 6 18.7 NNE 32 41 17 22 1019.4 1019.1 0.0
20/10:30am 33.8 25.3 -6.8 7 17.8 NNE 30 41 16 22 1019.7 1019.4 0.0
20/10:00am 32.7 24.5 -7.6 7 17.4 NE 28 35 15 19 1019.8 1019.5 0.0
20/09:30am 31.2 23.5 -6.9 8 16.3 NE 26 35 14 19 1019.8 1019.5 0.0
20/09:00am 29.5 22.8 -8.2 8 15.6 NE 20 30 11 16 1019.8 1019.5 0.0
20/08:30am 26.1 20.0 -7.9 10 13.7 NE 17 24 9 13 1019.7 1019.4 0.0
20/08:00am 21.6 16.9 -9.0 12 11.5 ENE 9 11 5 6 1019.4 1019.1 0.0
20/07:30am 17.1 11.9 -10.6 14 9.6 ENE 11 11 6 6 1019.1 1018.8 0.0
20/07:00am 16.9 10.9 -10.7 14 9.5 ENE 15 17 8 9 1018.8 1018.5 0.0
20/06:30am 15.9 10.6 -11.5 14 9.1 NE 11 11 6 6 1018.6 1018.3 0.0
20/06:00am 18.0 13.6 -10.8 13 10.0 NE 7 9 4 5 1018.3 1018.0 0.0
20/05:30am 18.0 14.9 -10.8 13 10.0 CALM 0 0 0 0 1018.1 1017.8 0.0
20/05:00am 18.2 14.0 -10.6 13 10.1 ENE 6 9 3 5 1017.8 1017.5 0.0
20/04:30am 19.4 14.6 -10.7 12 10.7 E 9 11 5 6 1017.7 1017.4 0.0
20/04:00am 20.5 15.8 -9.8 12 11.1 NE 9 9 5 5 1017.8 1017.5 0.0
20/03:30am 21.9 17.1 -9.9 11 11.8 ENE 9 11 5 6 1017.8 1017.5 0.0
20/03:00am 20.7 15.9 -10.8 11 11.3 ENE 9 11 5 6 1017.9 1017.6 0.0
20/02:30am 22.0 17.6 -9.8 11 11.8 NE 7 11 4 6 1018.2 1017.9 0.0
20/02:00am 22.1 17.7 -10.9 10 12.1 ENE 7 9 4 5 1018.4 1018.1 0.0
20/01:30am 23.8 18.3 -9.6 10 12.7 ENE 13 17 7 9 1018.6 1018.3 0.0
20/01:00am 22.4 17.2 -10.7 10 12.2 ENE 11 13 6 7 1018.8 1018.5 0.0
20/12:30am 21.8 16.6 -11.1 10 11.9 ENE 11 13 6 7 1018.7 1018.4 0.0
20/12:00am 23.0 18.5 -11.5 9 12.6 ENE 7 11 4 6 1018.6 1018.3 0.0
 
Date/Time
CDT
Temp
°C
App
Temp
°C
Dew
Point
Rel
Hum
%
Delta-T
°C
Wind Press
QNH
hPa
Press
MSL
hPa
Rain
since 9 am
mm
Dir
 
Spd
km/h
Gust
km/h
Spd
kts
Gust
kts
19/11:30pm 22.5 18.2 -11.9 9 12.4 ENE 6 6 3 3 1018.5 1018.2 0.0
19/11:00pm 23.0 18.7 -11.5 9 12.6 ENE 6 9 3 5 1018.4 1018.1 0.0
19/10:30pm 23.8 19.4 -10.9 9 12.9 E 7 11 4 6 1018.3 1018.0 0.0
19/10:00pm 24.3 19.8 -12.0 8 13.3 E 7 9 4 5 1018.2 1017.9 0.0
19/09:30pm 25.4 21.1 -11.2 8 13.8 E 6 11 3 6 1018.0 1017.7 0.0
19/09:00pm 26.2 21.7 -12.3 7 14.3 E 7 9 4 5 1017.8 1017.5 0.0
19/08:30pm 27.7 22.1 -11.2 7 15.0 E 13 13 7 7 1017.5 1017.2 0.0
19/08:00pm 29.1 24.3 -10.2 7 15.7 E 9 11 5 6 1017.3 1017.0 0.0
19/07:30pm 31.7 26.5 -10.2 6 17.1 NNE 11 15 6 8 1017.0 1016.7 0.0
19/07:00pm 33.5 28.1 -9.0 6 18.0 NNE 13 19 7 10 1016.8 1016.5 0.0
19/06:30pm 34.3 28.7 -10.7 5 18.6 NNE 13 19 7 10 1016.5 1016.2 0.0

Other Formats:

Comma delimited format used in spreadsheet applications
http://www.bom.gov.au/fwo/IDS60801/IDS60801.94655.axf

JavaScript Object Notation format (JSON) in row-major order
http://www.bom.gov.au/fwo/IDS60801/IDS60801.94655.json